createdAt,value
2019-04-20T00:01:29.380Z,15.00
2019-04-20T00:04:01.034Z,14.80
2019-04-20T00:06:43.212Z,16.63
2019-04-20T00:09:15.388Z,15.67
2019-04-20T00:11:53.533Z,20.93
2019-04-20T00:14:25.680Z,14.27
2019-04-20T00:16:54.683Z,13.90
2019-04-20T00:19:35.384Z,15.28
2019-04-20T00:22:09.865Z,14.33
2019-04-20T00:25:07.029Z,20.37
2019-04-20T00:28:12.002Z,15.47
2019-04-20T00:30:46.629Z,14.87
2019-04-20T00:33:14.746Z,22.13
2019-04-20T00:35:37.996Z,20.13
2019-04-20T00:38:11.939Z,14.63
2019-04-20T00:40:49.526Z,20.97
2019-04-20T00:43:26.247Z,15.13
2019-04-20T00:46:01.969Z,16.20
2019-04-20T00:48:37.423Z,22.33
2019-04-20T00:51:23.912Z,15.20
2019-04-20T00:53:43.196Z,21.07
2019-04-20T00:56:11.965Z,14.23
2019-04-20T00:59:04.245Z,20.50
2019-04-20T01:01:36.203Z,17.80
2019-04-20T01:04:14.831Z,22.90
2019-04-20T01:06:50.084Z,16.23
2019-04-20T01:09:24.725Z,17.00
2019-04-20T01:11:56.885Z,17.10
2019-04-20T01:14:37.068Z,15.45
2019-04-20T01:17:11.797Z,16.13
2019-04-20T01:19:39.987Z,23.23
2019-04-20T01:22:19.761Z,16.93
2019-04-20T01:24:52.974Z,14.43
2019-04-20T01:27:39.800Z,14.63
2019-04-20T01:30:05.842Z,15.40
2019-04-20T01:32:49.208Z,17.67
2019-04-20T01:35:22.800Z,16.77
2019-04-20T01:37:57.428Z,16.27
2019-04-20T01:40:14.720Z,19.37
2019-04-20T01:42:51.150Z,17.83
2019-04-20T01:45:30.789Z,16.30
2019-04-20T01:48:01.273Z,16.73
2019-04-20T01:50:37.950Z,15.80
2019-04-20T01:53:16.466Z,15.77
2019-04-20T01:55:55.407Z,14.33
2019-04-20T01:58:47.219Z,16.17
2019-04-20T02:01:39.059Z,15.20
2019-04-20T02:04:39.037Z,17.83
2019-04-20T02:07:08.663Z,18.37
2019-04-20T02:09:48.525Z,16.10
2019-04-20T02:12:20.303Z,19.60
2019-04-20T02:14:55.486Z,15.67
2019-04-20T02:17:31.899Z,14.18
2019-04-20T02:20:19.839Z,21.07
2019-04-20T02:22:46.550Z,20.80
2019-04-20T02:25:05.836Z,18.27
2019-04-20T02:27:48.179Z,29.67
2019-04-20T02:30:53.870Z,18.17
2019-04-20T02:36:25.383Z,21.55
2019-04-20T02:41:53.365Z,17.33
2019-04-20T02:49:37.609Z,17.70
2019-04-20T02:54:40.347Z,17.50
2019-04-20T02:57:12.227Z,18.83
2019-04-20T03:02:06.315Z,26.40
2019-04-20T03:04:34.061Z,21.20
2019-04-20T03:07:09.244Z,18.50
2019-04-20T03:09:44.262Z,18.07
2019-04-20T03:12:23.723Z,18.03
2019-04-20T03:14:47.305Z,22.63
2019-04-20T03:17:32.630Z,15.93
2019-04-20T03:20:00.619Z,17.73
2019-04-20T03:23:05.500Z,14.73
2019-04-20T03:25:18.698Z,17.27
2019-04-20T03:28:01.271Z,20.33
2019-04-20T03:36:00.369Z,23.00
2019-04-20T03:38:16.951Z,21.83
2019-04-20T03:40:45.375Z,17.40
2019-04-20T03:43:07.659Z,21.20
2019-04-20T03:45:48.429Z,19.70
2019-04-20T03:48:34.571Z,21.17
2019-04-20T03:51:07.275Z,17.83
2019-04-20T03:53:39.309Z,18.77
2019-04-20T03:56:41.925Z,16.37
2019-04-20T03:59:33.232Z,13.63
2019-04-20T04:02:49.296Z,15.43
2019-04-20T04:05:13.554Z,16.83
2019-04-20T04:07:40.266Z,13.70
2019-04-20T04:10:20.689Z,14.00
2019-04-20T04:13:09.532Z,15.85
2019-04-20T04:15:48.749Z,16.27
2019-04-20T04:18:25.443Z,17.20
2019-04-20T04:20:59.428Z,16.77
2019-04-20T04:23:45.933Z,20.88
2019-04-20T04:26:17.305Z,17.23
2019-04-20T04:28:47.481Z,15.50
2019-04-20T04:31:28.056Z,18.30
2019-04-20T04:34:14.717Z,19.43
2019-04-20T04:36:35.880Z,18.20
2019-04-20T04:39:22.857Z,15.73
2019-04-20T04:41:42.335Z,20.60
2019-04-20T04:44:11.121Z,18.60
2019-04-20T04:46:33.867Z,22.30
2019-04-20T04:49:16.474Z,18.60
2019-04-20T04:51:50.401Z,23.17
2019-04-20T04:54:25.873Z,16.83
2019-04-20T04:56:48.389Z,17.20
2019-04-20T04:59:23.428Z,22.98
2019-04-20T05:01:58.076Z,16.13
2019-04-20T05:05:28.044Z,20.03
2019-04-20T05:07:52.100Z,18.17
2019-04-20T05:10:16.252Z,17.50
2019-04-20T05:12:50.160Z,18.70
2019-04-20T05:15:40.448Z,25.83
2019-04-20T05:18:17.248Z,19.83
2019-04-20T05:20:56.980Z,14.70
2019-04-20T05:23:41.430Z,16.67
2019-04-20T05:26:37.562Z,20.97
2019-04-20T05:28:59.022Z,14.77
2019-04-20T05:31:36.728Z,19.03
2019-04-20T05:34:26.043Z,13.57
2019-04-20T05:36:58.072Z,21.63
2019-04-20T05:39:32.907Z,17.70
2019-04-20T05:42:02.906Z,31.93
2019-04-20T05:44:46.030Z,15.63
2019-04-20T05:47:18.434Z,15.83
2019-04-20T05:49:50.133Z,25.40
2019-04-20T05:52:35.192Z,17.70
2019-04-20T05:55:03.181Z,21.37
2019-04-20T05:57:42.273Z,19.77
2019-04-20T06:00:15.898Z,42.83
2019-04-20T06:02:45.056Z,35.07
2019-04-20T06:05:22.347Z,30.63
2019-04-20T06:07:54.828Z,23.73
2019-04-20T06:10:32.062Z,17.80
2019-04-20T06:13:08.493Z,16.87
2019-04-20T06:16:07.348Z,33.03
2019-04-20T06:18:44.113Z,19.13
2019-04-20T06:21:35.480Z,20.03
2019-04-20T06:24:10.004Z,22.67
2019-04-20T06:26:55.111Z,18.73
2019-04-20T06:29:18.338Z,17.70
2019-04-20T06:32:05.162Z,27.73
2019-04-20T06:37:00.524Z,24.60
2019-04-20T06:42:29.020Z,18.73
2019-04-20T06:44:53.141Z,20.10
2019-04-20T06:47:24.481Z,18.30
2019-04-20T06:49:56.685Z,20.23
2019-04-20T06:52:37.428Z,22.33
2019-04-20T06:55:15.655Z,21.47
2019-04-20T06:57:54.701Z,16.53
2019-04-20T07:00:22.855Z,20.93
2019-04-20T07:03:05.702Z,16.07
2019-04-20T07:05:39.495Z,15.27
2019-04-20T07:08:36.049Z,15.03
2019-04-20T07:11:04.271Z,19.40
2019-04-20T07:13:17.803Z,30.37
2019-04-20T07:16:13.775Z,19.23
2019-04-20T07:19:24.158Z,20.27
2019-04-20T07:22:23.342Z,17.97
2019-04-20T07:24:48.760Z,16.60
2019-04-20T07:27:16.982Z,18.40
2019-04-20T07:29:51.999Z,20.53
2019-04-20T07:32:19.294Z,13.80
2019-04-20T07:34:56.705Z,22.07
2019-04-20T07:40:10.434Z,15.40
2019-04-20T07:42:46.768Z,18.50
2019-04-20T07:45:21.673Z,18.73
2019-04-20T07:50:18.894Z,15.77
2019-04-20T07:52:51.634Z,20.53
2019-04-20T07:55:49.553Z,16.87
2019-04-20T07:58:07.598Z,16.70
2019-04-20T08:00:56.555Z,15.60
2019-04-20T08:03:39.458Z,19.40
2019-04-20T08:06:01.105Z,25.30
2019-04-20T08:08:43.765Z,19.80
2019-04-20T08:11:21.127Z,14.33
2019-04-20T08:13:56.969Z,13.47
2019-04-20T08:16:44.002Z,19.00
2019-04-20T08:19:08.209Z,22.40
2019-04-20T08:21:45.021Z,19.73
2019-04-20T08:24:13.468Z,20.80
2019-04-20T08:26:40.193Z,15.13
2019-04-20T08:29:33.821Z,13.33
2019-04-20T08:32:51.603Z,13.87
2019-04-20T08:35:50.275Z,16.47
2019-04-20T12:53:22.471Z,4.97
2019-04-20T12:55:58.819Z,4.80
2019-04-20T12:58:32.535Z,4.30
2019-04-20T13:01:06.606Z,4.57
2019-04-20T13:03:41.575Z,4.10
2019-04-20T13:06:14.057Z,5.27
2019-04-20T13:08:53.432Z,3.67
2019-04-20T13:11:24.937Z,5.27
2019-04-20T13:14:34.718Z,4.60
2019-04-20T13:17:08.306Z,4.10
2019-04-20T13:19:41.532Z,4.40
2019-04-20T13:22:16.931Z,11.87
2019-04-20T13:24:49.347Z,3.23
2019-04-20T13:27:31.085Z,4.10
2019-04-20T13:30:25.912Z,3.70
2019-04-20T13:33:23.718Z,3.53
2019-04-20T13:36:01.641Z,5.40
2019-04-20T13:38:34.598Z,4.90
2019-04-20T13:41:06.790Z,9.13
2019-04-20T13:43:38.177Z,3.83
2019-04-20T13:46:13.170Z,5.47
2019-04-20T13:48:44.861Z,8.40
2019-04-20T13:51:18.956Z,3.57
2019-04-20T13:53:53.287Z,3.37
2019-04-20T13:56:28.066Z,4.47
2019-04-20T13:59:19.625Z,4.77
2019-04-20T14:02:01.327Z,4.17
2019-04-20T14:04:46.545Z,10.53
2019-04-20T14:07:20.338Z,3.73
2019-04-20T14:09:53.456Z,3.30
2019-04-20T14:12:32.423Z,3.73
2019-04-20T14:15:01.264Z,3.77
2019-04-20T14:17:35.100Z,5.27
2019-04-20T14:20:12.087Z,4.33
2019-04-20T14:22:41.147Z,3.90
2019-04-20T14:25:15.241Z,2.97
2019-04-20T14:27:55.287Z,6.20
2019-04-20T14:30:29.011Z,5.87
2019-04-20T14:33:02.999Z,7.43
2019-04-20T14:35:36.895Z,6.10
2019-04-20T14:38:12.960Z,4.07
2019-04-20T14:40:46.205Z,3.87
2019-04-20T14:43:19.233Z,3.43
2019-04-20T14:45:56.681Z,5.40
2019-04-20T14:48:29.101Z,4.40
2019-04-20T14:51:02.019Z,4.10
2019-04-20T14:53:35.607Z,3.77
2019-04-20T14:56:07.419Z,4.00
2019-04-20T14:58:47.231Z,3.87
2019-04-20T15:01:30.563Z,3.27
2019-04-20T15:04:09.305Z,3.00
2019-04-20T15:06:39.892Z,4.00
2019-04-20T15:09:14.696Z,3.17
2019-04-20T15:11:46.621Z,3.30
2019-04-20T15:14:20.734Z,3.20
2019-04-20T15:16:54.387Z,5.43
2019-04-20T15:19:50.045Z,4.17
2019-04-20T15:22:47.627Z,3.40
2019-04-20T15:25:19.202Z,3.33
2019-04-20T15:27:54.454Z,2.87
2019-04-20T15:30:27.059Z,3.80
2019-04-20T15:33:01.070Z,3.83
2019-04-20T15:35:34.741Z,3.53
2019-04-20T15:38:09.179Z,6.33
2019-04-20T15:40:41.488Z,4.77
2019-04-20T15:43:19.429Z,3.63
2019-04-20T15:45:52.092Z,3.80
2019-04-20T15:48:25.934Z,6.10
2019-04-20T15:50:59.238Z,8.40
2019-04-20T15:53:31.907Z,3.47
2019-04-20T15:56:14.442Z,9.03
2019-04-20T15:58:46.273Z,5.30
2019-04-20T16:01:20.709Z,3.17
2019-04-20T16:03:57.587Z,3.70
2019-04-20T16:06:31.576Z,6.43
2019-04-20T16:09:08.471Z,12.70
2019-04-20T16:11:41.397Z,3.93
2019-04-20T16:14:15.491Z,2.60
2019-04-20T16:16:48.624Z,3.53
2019-04-20T16:19:32.833Z,3.43
2019-04-20T16:21:54.377Z,2.47
2019-04-20T16:24:32.916Z,2.97
2019-04-20T16:27:21.296Z,3.33
2019-04-20T16:29:55.844Z,5.20
2019-04-20T16:32:30.427Z,3.40
2019-04-20T16:35:04.660Z,3.73
2019-04-20T16:37:36.608Z,3.80
2019-04-20T16:40:11.649Z,3.20
2019-04-20T16:42:44.315Z,3.40
2019-04-20T16:45:17.457Z,3.43
2019-04-20T16:47:50.557Z,13.40
2019-04-20T16:50:22.778Z,6.70
2019-04-20T16:52:54.980Z,3.43
2019-04-20T16:55:28.637Z,3.63
2019-04-20T16:58:01.777Z,3.80
2019-04-20T17:00:35.697Z,6.60
2019-04-20T17:03:11.079Z,4.60
2019-04-20T17:05:43.610Z,3.20
2019-04-20T17:08:16.846Z,3.50
2019-04-20T17:10:48.800Z,4.00
2019-04-20T17:13:32.966Z,10.23
2019-04-20T17:15:55.446Z,3.43
2019-04-20T17:18:29.467Z,4.20
2019-04-20T17:21:05.845Z,3.70
2019-04-20T17:23:35.230Z,9.10
2019-04-20T17:26:10.426Z,4.20
2019-04-20T17:29:10.617Z,5.00
2019-04-20T17:31:55.702Z,7.00
2019-04-20T17:34:45.597Z,5.53
2019-04-20T17:37:04.252Z,5.03
2019-04-20T17:39:53.974Z,5.30
2019-04-20T17:42:25.071Z,4.20
2019-04-20T17:44:52.966Z,4.87
2019-04-20T17:47:37.275Z,9.43
2019-04-20T17:50:11.619Z,5.73
2019-04-20T17:52:52.592Z,8.33
2019-04-20T17:55:17.602Z,4.30
2019-04-20T17:57:41.545Z,12.60
2019-04-20T18:00:24.169Z,3.53
2019-04-20T18:03:12.561Z,7.60
2019-04-20T18:05:58.562Z,4.13
2019-04-20T18:08:29.947Z,9.13
2019-04-20T18:10:57.269Z,5.20
2019-04-20T18:13:23.986Z,7.63
2019-04-20T18:16:17.016Z,4.13
2019-04-20T18:18:58.486Z,7.50
2019-04-20T18:21:38.388Z,3.90
2019-04-20T18:24:24.170Z,3.90
2019-04-20T18:27:05.594Z,3.70
2019-04-20T18:29:38.389Z,4.73
2019-04-20T18:32:07.552Z,5.93
2019-04-20T18:35:08.360Z,5.57
2019-04-20T18:37:39.734Z,4.60
2019-04-20T18:40:15.218Z,5.27
2019-04-20T18:42:57.179Z,9.30
2019-04-20T18:45:33.811Z,7.10
2019-04-20T18:48:12.978Z,5.40
2019-04-20T18:50:35.594Z,6.50
2019-04-20T18:53:03.506Z,5.03
2019-04-20T18:55:43.818Z,6.00
2019-04-20T18:58:11.362Z,5.23
2019-04-20T19:00:49.690Z,14.73
2019-04-20T19:03:28.990Z,9.00
2019-04-20T19:05:53.708Z,5.07
2019-04-20T19:08:33.897Z,8.80
2019-04-20T19:11:06.490Z,7.93
2019-04-20T19:13:47.486Z,6.73
2019-04-20T19:16:33.481Z,8.80
2019-04-20T19:19:17.930Z,4.87
2019-04-20T19:21:38.198Z,11.50
2019-04-20T19:24:13.280Z,5.20
2019-04-20T19:26:50.840Z,11.93
2019-04-20T19:29:26.450Z,6.03
2019-04-20T19:32:17.787Z,6.07
2019-04-20T19:34:46.409Z,7.80
2019-04-20T19:37:15.847Z,6.20
2019-04-20T19:39:57.141Z,4.93
2019-04-20T19:42:32.787Z,10.33
2019-04-20T19:45:08.848Z,20.47
2019-04-20T19:47:48.331Z,12.43
2019-04-20T19:50:31.356Z,7.53
2019-04-20T19:53:05.752Z,17.73
2019-04-20T19:55:28.131Z,15.90
2019-04-20T19:58:02.500Z,31.07
2019-04-20T20:00:50.560Z,54.40
2019-04-20T20:03:19.744Z,45.37
2019-04-20T20:05:54.786Z,19.90
2019-04-20T20:08:34.542Z,36.93
2019-04-20T20:11:04.668Z,25.30
2019-04-20T20:13:44.702Z,17.17
2019-04-20T20:16:23.516Z,22.97
2019-04-20T20:19:01.922Z,21.90
2019-04-20T20:21:40.561Z,17.63
2019-04-20T20:23:59.711Z,13.50
2019-04-20T20:26:36.984Z,12.53
2019-04-20T20:29:17.144Z,27.07
2019-04-20T20:32:02.039Z,13.60
2019-04-20T20:34:26.680Z,21.53
2019-04-20T20:36:54.670Z,7.97
2019-04-20T20:39:29.633Z,21.47
2019-04-20T20:42:15.149Z,14.43
2019-04-20T20:45:09.669Z,16.77
2019-04-20T20:47:49.037Z,18.20
2019-04-20T20:50:31.586Z,20.70
2019-04-20T20:52:57.770Z,23.77
2019-04-20T20:55:33.515Z,18.43
2019-04-20T20:58:01.837Z,13.00
2019-04-20T21:00:37.219Z,16.03
2019-04-20T21:03:06.038Z,17.40
2019-04-20T21:05:37.951Z,15.37
2019-04-20T21:08:11.423Z,27.40
2019-04-20T21:10:45.711Z,16.03
2019-04-20T21:13:19.089Z,18.53
2019-04-20T21:16:02.403Z,24.07
2019-04-20T21:18:47.500Z,19.97
2019-04-20T21:21:39.897Z,20.13
2019-04-20T21:24:28.772Z,11.60
2019-04-20T21:27:14.003Z,24.27
2019-04-20T21:29:56.028Z,23.20
2019-04-20T21:32:33.112Z,21.03
2019-04-20T21:35:10.516Z,32.83
2019-04-20T21:37:48.106Z,14.63
2019-04-20T21:40:27.964Z,24.33
2019-04-20T21:43:03.582Z,12.60
2019-04-20T21:45:48.504Z,29.63
2019-04-20T21:48:49.195Z,17.57
2019-04-20T21:51:19.167Z,13.10
2019-04-20T21:53:57.902Z,20.90
2019-04-20T21:56:33.568Z,14.33
2019-04-20T21:59:15.270Z,20.43
2019-04-20T22:01:46.424Z,14.90
2019-04-20T22:04:14.449Z,15.40
2019-04-20T22:06:47.727Z,13.03
2019-04-20T22:09:20.434Z,15.03
2019-04-20T22:12:02.315Z,10.40
2019-04-20T22:14:35.830Z,19.10
2019-04-20T22:17:15.112Z,10.90
2019-04-20T22:19:59.171Z,14.47
2019-04-20T22:22:39.774Z,24.77
2019-04-20T22:25:11.784Z,14.97
2019-04-20T22:27:34.975Z,23.03
2019-04-20T22:30:08.216Z,27.30
2019-04-20T22:32:44.169Z,51.63
2019-04-20T22:35:17.106Z,30.10
2019-04-20T22:38:06.577Z,30.00
2019-04-20T22:40:33.959Z,39.40
2019-04-20T22:43:08.410Z,58.43
2019-04-20T22:45:46.987Z,31.27
2019-04-20T22:48:16.313Z,26.73
2019-04-20T22:51:10.318Z,25.10
2019-04-20T22:53:36.506Z,28.23
2019-04-20T22:56:14.766Z,27.27
2019-04-20T22:58:43.460Z,20.87
2019-04-20T23:01:17.879Z,15.57
2019-04-20T23:03:41.294Z,9.30
2019-04-20T23:06:16.625Z,12.73
2019-04-20T23:08:56.389Z,10.67
2019-04-20T23:11:28.486Z,12.30
2019-04-20T23:14:00.450Z,11.00
2019-04-20T23:16:39.257Z,12.00
2019-04-20T23:19:05.369Z,9.33
2019-04-20T23:21:46.747Z,11.03
2019-04-20T23:24:16.289Z,9.60
2019-04-20T23:26:53.174Z,16.43
2019-04-20T23:29:34.000Z,20.43
2019-04-20T23:32:07.650Z,20.77
2019-04-20T23:34:39.149Z,11.87
2019-04-20T23:37:18.683Z,9.40
2019-04-20T23:39:48.828Z,11.27
2019-04-20T23:42:28.057Z,9.10
2019-04-20T23:45:26.942Z,10.57
2019-04-20T23:48:02.774Z,8.90
2019-04-20T23:50:48.925Z,12.40
2019-04-20T23:53:24.671Z,9.17
2019-04-20T23:55:41.426Z,9.40
2019-04-20T23:58:16.384Z,13.80
